sensor_id;sensor_type;location;lat;lon;timestamp;P1;durP1;ratioP1;P2;durP2;ratioP2
75220;SDS011;63802;53.232;6.570;2023-03-01T00:01:04;22.58;;;8.48;;
75220;SDS011;63802;53.232;6.570;2023-03-01T00:03:32;21.00;;;9.55;;
75220;SDS011;63802;53.232;6.570;2023-03-01T00:05:58;17.85;;;7.05;;
75220;SDS011;63802;53.232;6.570;2023-03-01T00:08:25;20.25;;;8.90;;
75220;SDS011;63802;53.232;6.570;2023-03-01T00:13:35;22.00;;;8.77;;
75220;SDS011;63802;53.232;6.570;2023-03-01T00:16:05;21.55;;;8.07;;
75220;SDS011;63802;53.232;6.570;2023-03-01T00:18:32;23.42;;;7.97;;
75220;SDS011;63802;53.232;6.570;2023-03-01T00:20:58;21.17;;;8.77;;
75220;SDS011;63802;53.232;6.570;2023-03-01T00:23:24;23.15;;;8.95;;
75220;SDS011;63802;53.232;6.570;2023-03-01T00:25:50;23.95;;;8.88;;
75220;SDS011;63802;53.232;6.570;2023-03-01T00:28:16;21.40;;;9.63;;
75220;SDS011;63802;53.232;6.570;2023-03-01T00:30:42;26.48;;;9.85;;
75220;SDS011;63802;53.232;6.570;2023-03-01T00:33:08;23.20;;;8.68;;
75220;SDS011;63802;53.232;6.570;2023-03-01T00:35:34;22.40;;;8.82;;
75220;SDS011;63802;53.232;6.570;2023-03-01T00:38:03;25.27;;;9.07;;
75220;SDS011;63802;53.232;6.570;2023-03-01T00:40:32;25.80;;;9.77;;
75220;SDS011;63802;53.232;6.570;2023-03-01T00:42:58;25.88;;;9.50;;
75220;SDS011;63802;53.232;6.570;2023-03-01T00:45:25;29.92;;;9.40;;
75220;SDS011;63802;53.232;6.570;2023-03-01T00:47:51;26.55;;;11.05;;
75220;SDS011;63802;53.232;6.570;2023-03-01T00:50:17;30.48;;;11.50;;
75220;SDS011;63802;53.232;6.570;2023-03-01T00:52:44;25.75;;;10.02;;
75220;SDS011;63802;53.232;6.570;2023-03-01T00:55:09;28.63;;;10.43;;
75220;SDS011;63802;53.232;6.570;2023-03-01T00:57:35;28.08;;;10.52;;
75220;SDS011;63802;53.232;6.570;2023-03-01T01:00:01;30.63;;;10.18;;
75220;SDS011;63802;53.232;6.570;2023-03-01T01:02:28;25.35;;;10.30;;
75220;SDS011;63802;53.232;6.570;2023-03-01T01:04:53;26.88;;;10.25;;
75220;SDS011;63802;53.232;6.570;2023-03-01T01:07:19;27.98;;;10.15;;
75220;SDS011;63802;53.232;6.570;2023-03-01T01:09:45;22.05;;;9.50;;
75220;SDS011;63802;53.232;6.570;2023-03-01T01:12:11;28.63;;;11.40;;
75220;SDS011;63802;53.232;6.570;2023-03-01T01:14:40;31.05;;;10.50;;
75220;SDS011;63802;53.232;6.570;2023-03-01T01:17:06;29.42;;;10.27;;
75220;SDS011;63802;53.232;6.570;2023-03-01T01:19:31;29.35;;;9.60;;
75220;SDS011;63802;53.232;6.570;2023-03-01T01:21:57;32.75;;;10.90;;
75220;SDS011;63802;53.232;6.570;2023-03-01T01:24:23;24.60;;;10.05;;
75220;SDS011;63802;53.232;6.570;2023-03-01T01:26:49;27.77;;;10.63;;
75220;SDS011;63802;53.232;6.570;2023-03-01T01:29:15;24.85;;;9.52;;
75220;SDS011;63802;53.232;6.570;2023-03-01T01:31:41;31.02;;;10.23;;
75220;SDS011;63802;53.232;6.570;2023-03-01T01:34:08;31.13;;;11.05;;
75220;SDS011;63802;53.232;6.570;2023-03-01T01:36:37;28.55;;;10.30;;
75220;SDS011;63802;53.232;6.570;2023-03-01T01:39:06;27.08;;;9.82;;
75220;SDS011;63802;53.232;6.570;2023-03-01T01:41:32;23.77;;;8.67;;
75220;SDS011;63802;53.232;6.570;2023-03-01T01:44:15;24.38;;;9.38;;
75220;SDS011;63802;53.232;6.570;2023-03-01T01:46:47;28.23;;;9.35;;
75220;SDS011;63802;53.232;6.570;2023-03-01T01:49:19;20.70;;;8.18;;
75220;SDS011;63802;53.232;6.570;2023-03-01T01:51:51;19.58;;;8.73;;
75220;SDS011;63802;53.232;6.570;2023-03-01T01:54:27;18.63;;;7.57;;
75220;SDS011;63802;53.232;6.570;2023-03-01T01:57:23;19.40;;;7.38;;
75220;SDS011;63802;53.232;6.570;2023-03-01T01:59:53;19.00;;;7.45;;
75220;SDS011;63802;53.232;6.570;2023-03-01T02:02:24;19.60;;;7.60;;
75220;SDS011;63802;53.232;6.570;2023-03-01T02:04:52;18.38;;;6.75;;
75220;SDS011;63802;53.232;6.570;2023-03-01T02:07:25;19.98;;;7.75;;
75220;SDS011;63802;53.232;6.570;2023-03-01T02:09:51;15.18;;;6.22;;
75220;SDS011;63802;53.232;6.570;2023-03-01T02:12:19;12.70;;;6.18;;
75220;SDS011;63802;53.232;6.570;2023-03-01T02:14:48;13.07;;;6.43;;
75220;SDS011;63802;53.232;6.570;2023-03-01T02:17:14;15.50;;;6.55;;
75220;SDS011;63802;53.232;6.570;2023-03-01T02:22:32;14.68;;;6.65;;
75220;SDS011;63802;53.232;6.570;2023-03-01T02:27:26;14.57;;;6.15;;
75220;SDS011;63802;53.232;6.570;2023-03-01T02:30:12;16.45;;;5.95;;
75220;SDS011;63802;53.232;6.570;2023-03-01T02:32:39;13.98;;;6.82;;
75220;SDS011;63802;53.232;6.570;2023-03-01T02:35:08;14.88;;;6.03;;
75220;SDS011;63802;53.232;6.570;2023-03-01T02:37:39;11.10;;;5.15;;
75220;SDS011;63802;53.232;6.570;2023-03-01T02:40:08;13.57;;;5.95;;
75220;SDS011;63802;53.232;6.570;2023-03-01T02:42:40;14.30;;;6.15;;
75220;SDS011;63802;53.232;6.570;2023-03-01T02:45:14;12.18;;;5.15;;
75220;SDS011;63802;53.232;6.570;2023-03-01T02:47:40;16.73;;;6.95;;
75220;SDS011;63802;53.232;6.570;2023-03-01T02:53:03;11.50;;;5.57;;
75220;SDS011;63802;53.232;6.570;2023-03-01T02:55:36;14.73;;;5.80;;
75220;SDS011;63802;53.232;6.570;2023-03-01T02:58:02;14.43;;;6.00;;
75220;SDS011;63802;53.232;6.570;2023-03-01T03:00:30;15.35;;;6.65;;
75220;SDS011;63802;53.232;6.570;2023-03-01T03:03:20;18.35;;;6.25;;
75220;SDS011;63802;53.232;6.570;2023-03-01T03:05:47;15.18;;;6.22;;
75220;SDS011;63802;53.232;6.570;2023-03-01T03:08:13;16.38;;;6.82;;
75220;SDS011;63802;53.232;6.570;2023-03-01T03:10:41;20.27;;;6.63;;
75220;SDS011;63802;53.232;6.570;2023-03-01T03:13:11;21.60;;;7.28;;
75220;SDS011;63802;53.232;6.570;2023-03-01T03:15:39;17.00;;;6.88;;
75220;SDS011;63802;53.232;6.570;2023-03-01T03:18:07;12.93;;;6.22;;
75220;SDS011;63802;53.232;6.570;2023-03-01T03:20:37;13.25;;;5.57;;
75220;SDS011;63802;53.232;6.570;2023-03-01T03:23:05;12.93;;;6.20;;
75220;SDS011;63802;53.232;6.570;2023-03-01T03:25:31;16.85;;;7.13;;
75220;SDS011;63802;53.232;6.570;2023-03-01T03:27:56;15.82;;;6.43;;
75220;SDS011;63802;53.232;6.570;2023-03-01T03:30:27;17.55;;;6.45;;
75220;SDS011;63802;53.232;6.570;2023-03-01T03:32:55;16.65;;;6.18;;
75220;SDS011;63802;53.232;6.570;2023-03-01T03:35:24;17.10;;;7.13;;
75220;SDS011;63802;53.232;6.570;2023-03-01T03:37:52;18.80;;;7.22;;
75220;SDS011;63802;53.232;6.570;2023-03-01T03:40:28;20.40;;;7.45;;
75220;SDS011;63802;53.232;6.570;2023-03-01T03:42:55;16.33;;;7.10;;
75220;SDS011;63802;53.232;6.570;2023-03-01T03:45:21;14.30;;;6.07;;
75220;SDS011;63802;53.232;6.570;2023-03-01T03:47:47;18.95;;;7.78;;
75220;SDS011;63802;53.232;6.570;2023-03-01T03:50:13;14.98;;;6.88;;
75220;SDS011;63802;53.232;6.570;2023-03-01T03:52:41;16.30;;;6.82;;
75220;SDS011;63802;53.232;6.570;2023-03-01T03:55:07;19.30;;;7.20;;
75220;SDS011;63802;53.232;6.570;2023-03-01T03:57:35;16.08;;;6.68;;
75220;SDS011;63802;53.232;6.570;2023-03-01T04:00:00;17.35;;;6.38;;
75220;SDS011;63802;53.232;6.570;2023-03-01T04:02:29;16.73;;;6.43;;
75220;SDS011;63802;53.232;6.570;2023-03-01T04:04:55;17.02;;;6.65;;
75220;SDS011;63802;53.232;6.570;2023-03-01T04:07:21;19.33;;;7.28;;
75220;SDS011;63802;53.232;6.570;2023-03-01T04:09:46;19.17;;;7.28;;
75220;SDS011;63802;53.232;6.570;2023-03-01T04:12:12;22.98;;;8.57;;
75220;SDS011;63802;53.232;6.570;2023-03-01T04:14:45;19.13;;;7.40;;
75220;SDS011;63802;53.232;6.570;2023-03-01T04:17:11;16.40;;;6.78;;
75220;SDS011;63802;53.232;6.570;2023-03-01T04:19:36;11.50;;;5.50;;
75220;SDS011;63802;53.232;6.570;2023-03-01T04:22:02;11.38;;;5.35;;
75220;SDS011;63802;53.232;6.570;2023-03-01T04:24:34;9.35;;;4.90;;
75220;SDS011;63802;53.232;6.570;2023-03-01T04:27:00;11.52;;;5.70;;
75220;SDS011;63802;53.232;6.570;2023-03-01T04:29:26;9.10;;;5.20;;
75220;SDS011;63802;53.232;6.570;2023-03-01T04:31:52;9.85;;;4.53;;
75220;SDS011;63802;53.232;6.570;2023-03-01T04:34:18;13.38;;;5.28;;
75220;SDS011;63802;53.232;6.570;2023-03-01T04:36:44;12.77;;;5.57;;
75220;SDS011;63802;53.232;6.570;2023-03-01T04:39:09;12.68;;;5.00;;
75220;SDS011;63802;53.232;6.570;2023-03-01T04:41:37;12.32;;;5.55;;
75220;SDS011;63802;53.232;6.570;2023-03-01T04:44:04;8.93;;;4.65;;
75220;SDS011;63802;53.232;6.570;2023-03-01T04:46:31;11.10;;;5.05;;
75220;SDS011;63802;53.232;6.570;2023-03-01T04:48:56;15.77;;;6.20;;
75220;SDS011;63802;53.232;6.570;2023-03-01T04:51:22;17.30;;;7.18;;
75220;SDS011;63802;53.232;6.570;2023-03-01T04:53:48;11.10;;;6.03;;
75220;SDS011;63802;53.232;6.570;2023-03-01T04:56:14;12.38;;;5.63;;
75220;SDS011;63802;53.232;6.570;2023-03-01T04:58:40;13.52;;;5.38;;
75220;SDS011;63802;53.232;6.570;2023-03-01T05:01:17;13.93;;;6.18;;
75220;SDS011;63802;53.232;6.570;2023-03-01T05:03:44;13.18;;;6.18;;
75220;SDS011;63802;53.232;6.570;2023-03-01T05:06:15;17.15;;;7.25;;
75220;SDS011;63802;53.232;6.570;2023-03-01T05:08:42;17.77;;;6.43;;
75220;SDS011;63802;53.232;6.570;2023-03-01T05:11:08;12.75;;;5.60;;
75220;SDS011;63802;53.232;6.570;2023-03-01T05:13:35;12.57;;;5.88;;
75220;SDS011;63802;53.232;6.570;2023-03-01T05:16:02;13.68;;;6.38;;
75220;SDS011;63802;53.232;6.570;2023-03-01T05:18:29;16.05;;;6.10;;
75220;SDS011;63802;53.232;6.570;2023-03-01T05:21:01;14.15;;;6.03;;
75220;SDS011;63802;53.232;6.570;2023-03-01T05:23:29;10.35;;;5.50;;
75220;SDS011;63802;53.232;6.570;2023-03-01T05:25:57;12.05;;;5.85;;
75220;SDS011;63802;53.232;6.570;2023-03-01T05:28:24;11.98;;;5.40;;
75220;SDS011;63802;53.232;6.570;2023-03-01T05:30:50;12.77;;;6.70;;
75220;SDS011;63802;53.232;6.570;2023-03-01T05:33:17;12.00;;;5.53;;
75220;SDS011;63802;53.232;6.570;2023-03-01T05:35:44;15.13;;;6.20;;
75220;SDS011;63802;53.232;6.570;2023-03-01T05:38:10;11.13;;;5.05;;
75220;SDS011;63802;53.232;6.570;2023-03-01T05:40:43;11.63;;;4.85;;
75220;SDS011;63802;53.232;6.570;2023-03-01T05:43:12;10.40;;;4.88;;
75220;SDS011;63802;53.232;6.570;2023-03-01T05:45:39;13.52;;;6.10;;
75220;SDS011;63802;53.232;6.570;2023-03-01T05:48:06;12.70;;;5.80;;
75220;SDS011;63802;53.232;6.570;2023-03-01T05:50:34;13.65;;;6.18;;
75220;SDS011;63802;53.232;6.570;2023-03-01T05:53:02;13.40;;;5.47;;
75220;SDS011;63802;53.232;6.570;2023-03-01T05:55:31;15.07;;;6.50;;
75220;SDS011;63802;53.232;6.570;2023-03-01T05:57:58;13.82;;;5.55;;
75220;SDS011;63802;53.232;6.570;2023-03-01T06:00:26;13.15;;;5.60;;
75220;SDS011;63802;53.232;6.570;2023-03-01T06:02:53;12.88;;;5.85;;
75220;SDS011;63802;53.232;6.570;2023-03-01T06:05:19;14.85;;;6.15;;
75220;SDS011;63802;53.232;6.570;2023-03-01T06:07:45;14.93;;;5.93;;
75220;SDS011;63802;53.232;6.570;2023-03-01T06:10:11;16.88;;;6.72;;
75220;SDS011;63802;53.232;6.570;2023-03-01T06:12:37;18.42;;;6.32;;
75220;SDS011;63802;53.232;6.570;2023-03-01T06:15:04;11.85;;;6.15;;
75220;SDS011;63802;53.232;6.570;2023-03-01T06:17:32;12.73;;;6.20;;
75220;SDS011;63802;53.232;6.570;2023-03-01T06:20:02;18.08;;;7.70;;
75220;SDS011;63802;53.232;6.570;2023-03-01T06:22:38;17.88;;;7.00;;
75220;SDS011;63802;53.232;6.570;2023-03-01T06:25:07;16.73;;;7.10;;
75220;SDS011;63802;53.232;6.570;2023-03-01T06:27:34;15.63;;;6.65;;
75220;SDS011;63802;53.232;6.570;2023-03-01T06:30:00;15.13;;;6.93;;
75220;SDS011;63802;53.232;6.570;2023-03-01T06:32:26;15.73;;;7.10;;
75220;SDS011;63802;53.232;6.570;2023-03-01T06:34:52;18.38;;;6.78;;
75220;SDS011;63802;53.232;6.570;2023-03-01T06:37:17;15.75;;;6.72;;
75220;SDS011;63802;53.232;6.570;2023-03-01T06:39:42;16.00;;;5.93;;
75220;SDS011;63802;53.232;6.570;2023-03-01T06:42:08;13.90;;;6.43;;
75220;SDS011;63802;53.232;6.570;2023-03-01T06:44:38;16.75;;;6.55;;
75220;SDS011;63802;53.232;6.570;2023-03-01T06:47:04;15.88;;;6.05;;
75220;SDS011;63802;53.232;6.570;2023-03-01T06:49:29;16.35;;;7.32;;
75220;SDS011;63802;53.232;6.570;2023-03-01T06:51:55;16.92;;;6.88;;
75220;SDS011;63802;53.232;6.570;2023-03-01T06:54:21;15.63;;;7.07;;
75220;SDS011;63802;53.232;6.570;2023-03-01T06:56:48;19.83;;;8.10;;
75220;SDS011;63802;53.232;6.570;2023-03-01T06:59:14;20.80;;;7.53;;
75220;SDS011;63802;53.232;6.570;2023-03-01T07:01:40;20.20;;;8.55;;
75220;SDS011;63802;53.232;6.570;2023-03-01T07:04:05;15.57;;;6.88;;
75220;SDS011;63802;53.232;6.570;2023-03-01T07:06:31;15.85;;;6.82;;
75220;SDS011;63802;53.232;6.570;2023-03-01T07:08:56;20.83;;;8.88;;
75220;SDS011;63802;53.232;6.570;2023-03-01T07:11:22;22.52;;;7.35;;
75220;SDS011;63802;53.232;6.570;2023-03-01T07:13:48;16.70;;;7.13;;
75220;SDS011;63802;53.232;6.570;2023-03-01T07:16:13;17.58;;;7.38;;
75220;SDS011;63802;53.232;6.570;2023-03-01T07:18:39;17.00;;;7.88;;
75220;SDS011;63802;53.232;6.570;2023-03-01T07:21:06;15.65;;;6.97;;
75220;SDS011;63802;53.232;6.570;2023-03-01T07:23:33;23.55;;;7.85;;
75220;SDS011;63802;53.232;6.570;2023-03-01T07:25:59;23.10;;;8.57;;
75220;SDS011;63802;53.232;6.570;2023-03-01T07:28:25;15.48;;;7.65;;
75220;SDS011;63802;53.232;6.570;2023-03-01T07:30:51;17.75;;;7.22;;
75220;SDS011;63802;53.232;6.570;2023-03-01T07:33:16;19.13;;;7.80;;
75220;SDS011;63802;53.232;6.570;2023-03-01T07:35:42;17.33;;;7.50;;
75220;SDS011;63802;53.232;6.570;2023-03-01T07:38:07;17.40;;;8.48;;
75220;SDS011;63802;53.232;6.570;2023-03-01T07:40:33;20.63;;;8.23;;
75220;SDS011;63802;53.232;6.570;2023-03-01T07:42:59;19.25;;;7.88;;
75220;SDS011;63802;53.232;6.570;2023-03-01T07:45:26;22.65;;;9.23;;
75220;SDS011;63802;53.232;6.570;2023-03-01T07:47:53;22.05;;;9.65;;
75220;SDS011;63802;53.232;6.570;2023-03-01T07:50:19;24.08;;;10.27;;
75220;SDS011;63802;53.232;6.570;2023-03-01T07:52:45;22.13;;;9.93;;
75220;SDS011;63802;53.232;6.570;2023-03-01T07:55:11;25.05;;;10.60;;
75220;SDS011;63802;53.232;6.570;2023-03-01T07:57:36;24.00;;;10.32;;
75220;SDS011;63802;53.232;6.570;2023-03-01T08:00:02;22.08;;;10.05;;
75220;SDS011;63802;53.232;6.570;2023-03-01T08:02:28;26.65;;;11.23;;
75220;SDS011;63802;53.232;6.570;2023-03-01T08:04:53;27.98;;;10.90;;
75220;SDS011;63802;53.232;6.570;2023-03-01T08:07:19;31.95;;;11.35;;
75220;SDS011;63802;53.232;6.570;2023-03-01T08:09:44;28.77;;;11.60;;
75220;SDS011;63802;53.232;6.570;2023-03-01T08:12:10;30.52;;;12.40;;
75220;SDS011;63802;53.232;6.570;2023-03-01T08:14:36;28.77;;;12.50;;
75220;SDS011;63802;53.232;6.570;2023-03-01T08:17:01;31.08;;;13.80;;
75220;SDS011;63802;53.232;6.570;2023-03-01T08:19:28;32.03;;;13.07;;
75220;SDS011;63802;53.232;6.570;2023-03-01T08:21:54;29.85;;;12.27;;
75220;SDS011;63802;53.232;6.570;2023-03-01T08:24:20;34.88;;;15.27;;
75220;SDS011;63802;53.232;6.570;2023-03-01T08:26:45;40.42;;;16.35;;
75220;SDS011;63802;53.232;6.570;2023-03-01T08:29:11;48.03;;;18.92;;
75220;SDS011;63802;53.232;6.570;2023-03-01T08:31:37;30.50;;;14.73;;
75220;SDS011;63802;53.232;6.570;2023-03-01T08:34:06;44.67;;;17.10;;
75220;SDS011;63802;53.232;6.570;2023-03-01T08:36:40;41.23;;;16.97;;
75220;SDS011;63802;53.232;6.570;2023-03-01T08:39:08;43.80;;;18.52;;
75220;SDS011;63802;53.232;6.570;2023-03-01T08:41:34;44.75;;;18.10;;
75220;SDS011;63802;53.232;6.570;2023-03-01T08:44:00;43.97;;;16.55;;
75220;SDS011;63802;53.232;6.570;2023-03-01T08:46:30;42.90;;;17.05;;
75220;SDS011;63802;53.232;6.570;2023-03-01T08:48:57;35.03;;;15.20;;
75220;SDS011;63802;53.232;6.570;2023-03-01T08:51:24;40.22;;;18.65;;
75220;SDS011;63802;53.232;6.570;2023-03-01T08:53:50;37.33;;;15.75;;
75220;SDS011;63802;53.232;6.570;2023-03-01T08:56:16;40.17;;;16.23;;
75220;SDS011;63802;53.232;6.570;2023-03-01T08:58:44;36.78;;;16.80;;
75220;SDS011;63802;53.232;6.570;2023-03-01T09:01:11;37.45;;;16.45;;
75220;SDS011;63802;53.232;6.570;2023-03-01T09:03:38;37.95;;;14.80;;
75220;SDS011;63802;53.232;6.570;2023-03-01T09:06:04;38.30;;;16.73;;
75220;SDS011;63802;53.232;6.570;2023-03-01T09:08:34;38.00;;;16.73;;
75220;SDS011;63802;53.232;6.570;2023-03-01T09:11:11;40.97;;;15.60;;
75220;SDS011;63802;53.232;6.570;2023-03-01T09:13:40;38.45;;;15.77;;
75220;SDS011;63802;53.232;6.570;2023-03-01T09:16:06;43.03;;;16.38;;
75220;SDS011;63802;53.232;6.570;2023-03-01T09:18:33;37.13;;;15.45;;
75220;SDS011;63802;53.232;6.570;2023-03-01T09:21:03;34.00;;;15.90;;
75220;SDS011;63802;53.232;6.570;2023-03-01T09:23:34;35.13;;;13.70;;
75220;SDS011;63802;53.232;6.570;2023-03-01T09:26:05;33.10;;;14.50;;
75220;SDS011;63802;53.232;6.570;2023-03-01T09:28:31;37.60;;;15.65;;
75220;SDS011;63802;53.232;6.570;2023-03-01T09:30:58;30.45;;;13.65;;
75220;SDS011;63802;53.232;6.570;2023-03-01T09:33:24;30.25;;;14.05;;
75220;SDS011;63802;53.232;6.570;2023-03-01T09:35:55;30.35;;;13.10;;
75220;SDS011;63802;53.232;6.570;2023-03-01T09:38:28;31.88;;;12.93;;
75220;SDS011;63802;53.232;6.570;2023-03-01T09:40:54;29.17;;;12.25;;
75220;SDS011;63802;53.232;6.570;2023-03-01T09:43:26;30.50;;;13.00;;
75220;SDS011;63802;53.232;6.570;2023-03-01T09:46:03;30.83;;;13.73;;
75220;SDS011;63802;53.232;6.570;2023-03-01T09:48:33;27.88;;;12.75;;
75220;SDS011;63802;53.232;6.570;2023-03-01T09:51:23;27.63;;;12.73;;
75220;SDS011;63802;53.232;6.570;2023-03-01T09:53:58;19.30;;;8.63;;
75220;SDS011;63802;53.232;6.570;2023-03-01T10:04:28;23.70;;;10.93;;
75220;SDS011;63802;53.232;6.570;2023-03-01T10:07:12;21.33;;;10.13;;
75220;SDS011;63802;53.232;6.570;2023-03-01T10:09:41;24.25;;;10.88;;
75220;SDS011;63802;53.232;6.570;2023-03-01T10:12:11;25.40;;;11.52;;
75220;SDS011;63802;53.232;6.570;2023-03-01T10:18:00;24.08;;;11.10;;
75220;SDS011;63802;53.232;6.570;2023-03-01T10:20:54;23.77;;;11.50;;
75220;SDS011;63802;53.232;6.570;2023-03-01T10:23:26;21.02;;;9.75;;
75220;SDS011;63802;53.232;6.570;2023-03-01T10:28:58;19.60;;;9.68;;
75220;SDS011;63802;53.232;6.570;2023-03-01T10:31:40;29.73;;;10.98;;
75220;SDS011;63802;53.232;6.570;2023-03-01T10:34:19;20.83;;;8.98;;
75220;SDS011;63802;53.232;6.570;2023-03-01T10:37:09;23.67;;;10.45;;
75220;SDS011;63802;53.232;6.570;2023-03-01T10:42:28;24.15;;;11.43;;
75220;SDS011;63802;53.232;6.570;2023-03-01T10:45:00;21.23;;;9.95;;
75220;SDS011;63802;53.232;6.570;2023-03-01T10:47:42;22.80;;;11.30;;
75220;SDS011;63802;53.232;6.570;2023-03-01T10:50:17;22.10;;;10.48;;
75220;SDS011;63802;53.232;6.570;2023-03-01T10:52:55;20.48;;;9.57;;
75220;SDS011;63802;53.232;6.570;2023-03-01T10:55:36;18.88;;;9.35;;
75220;SDS011;63802;53.232;6.570;2023-03-01T11:00:45;20.40;;;10.13;;
75220;SDS011;63802;53.232;6.570;2023-03-01T11:03:25;19.33;;;8.93;;
75220;SDS011;63802;53.232;6.570;2023-03-01T11:08:37;16.25;;;8.75;;
75220;SDS011;63802;53.232;6.570;2023-03-01T11:11:05;17.20;;;9.23;;
75220;SDS011;63802;53.232;6.570;2023-03-01T11:16:22;19.08;;;9.65;;
75220;SDS011;63802;53.232;6.570;2023-03-01T11:21:33;17.27;;;9.25;;
75220;SDS011;63802;53.232;6.570;2023-03-01T11:24:02;20.38;;;9.30;;
75220;SDS011;63802;53.232;6.570;2023-03-01T11:26:29;16.45;;;8.45;;
75220;SDS011;63802;53.232;6.570;2023-03-01T11:29:00;19.75;;;9.82;;
75220;SDS011;63802;53.232;6.570;2023-03-01T11:31:30;20.42;;;9.20;;
75220;SDS011;63802;53.232;6.570;2023-03-01T11:34:03;18.38;;;8.80;;
75220;SDS011;63802;53.232;6.570;2023-03-01T11:42:14;16.73;;;8.32;;
75220;SDS011;63802;53.232;6.570;2023-03-01T11:44:44;16.42;;;8.50;;
75220;SDS011;63802;53.232;6.570;2023-03-01T11:58:24;17.58;;;8.93;;
75220;SDS011;63802;53.232;6.570;2023-03-01T12:30:28;18.08;;;9.02;;
75220;SDS011;63802;53.232;6.570;2023-03-01T12:36:31;15.48;;;8.20;;
75220;SDS011;63802;53.232;6.570;2023-03-01T12:41:25;17.30;;;7.20;;
75220;SDS011;63802;53.232;6.570;2023-03-01T12:49:49;14.60;;;7.28;;
75220;SDS011;63802;53.232;6.570;2023-03-01T12:52:35;18.33;;;8.00;;
75220;SDS011;63802;53.232;6.570;2023-03-01T12:55:08;14.38;;;7.63;;
75220;SDS011;63802;53.232;6.570;2023-03-01T12:57:53;16.55;;;8.13;;
75220;SDS011;63802;53.232;6.570;2023-03-01T13:01:14;19.95;;;8.45;;
75220;SDS011;63802;53.232;6.570;2023-03-01T13:09:19;15.38;;;6.88;;
75220;SDS011;63802;53.232;6.570;2023-03-01T13:17:49;13.55;;;6.68;;
75220;SDS011;63802;53.232;6.570;2023-03-01T13:20:18;14.93;;;7.10;;
75220;SDS011;63802;53.232;6.570;2023-03-01T13:23:36;13.85;;;7.40;;
75220;SDS011;63802;53.232;6.570;2023-03-01T13:36:11;15.98;;;7.93;;
75220;SDS011;63802;53.232;6.570;2023-03-01T13:38:58;13.88;;;7.55;;
75220;SDS011;63802;53.232;6.570;2023-03-01T13:41:54;17.58;;;7.82;;
75220;SDS011;63802;53.232;6.570;2023-03-01T13:52:42;14.52;;;7.57;;
75220;SDS011;63802;53.232;6.570;2023-03-01T13:55:17;14.30;;;7.20;;
75220;SDS011;63802;53.232;6.570;2023-03-01T13:57:50;15.35;;;7.60;;
75220;SDS011;63802;53.232;6.570;2023-03-01T14:00:37;13.82;;;7.50;;
75220;SDS011;63802;53.232;6.570;2023-03-01T14:05:57;14.52;;;6.75;;
75220;SDS011;63802;53.232;6.570;2023-03-01T14:08:35;15.98;;;6.85;;
75220;SDS011;63802;53.232;6.570;2023-03-01T14:11:21;16.65;;;8.45;;
75220;SDS011;63802;53.232;6.570;2023-03-01T14:17:06;15.60;;;6.95;;
75220;SDS011;63802;53.232;6.570;2023-03-01T14:19:38;15.77;;;7.13;;
75220;SDS011;63802;53.232;6.570;2023-03-01T14:22:23;15.55;;;7.75;;
75220;SDS011;63802;53.232;6.570;2023-03-01T14:24:52;14.87;;;7.10;;
75220;SDS011;63802;53.232;6.570;2023-03-01T14:27:21;15.85;;;7.28;;
75220;SDS011;63802;53.232;6.570;2023-03-01T14:30:01;14.57;;;7.40;;
75220;SDS011;63802;53.232;6.570;2023-03-01T14:32:57;15.20;;;7.43;;
75220;SDS011;63802;53.232;6.570;2023-03-01T14:35:30;17.15;;;8.18;;
75220;SDS011;63802;53.232;6.570;2023-03-01T14:37:57;16.02;;;7.63;;
75220;SDS011;63802;53.232;6.570;2023-03-01T14:40:34;14.38;;;7.25;;
75220;SDS011;63802;53.232;6.570;2023-03-01T14:43:02;17.48;;;7.55;;
75220;SDS011;63802;53.232;6.570;2023-03-01T14:45:36;16.35;;;7.50;;
75220;SDS011;63802;53.232;6.570;2023-03-01T14:48:02;16.38;;;7.55;;
75220;SDS011;63802;53.232;6.570;2023-03-01T14:50:31;18.25;;;8.43;;
75220;SDS011;63802;53.232;6.570;2023-03-01T14:53:02;17.15;;;7.40;;
75220;SDS011;63802;53.232;6.570;2023-03-01T14:55:31;16.27;;;7.53;;
75220;SDS011;63802;53.232;6.570;2023-03-01T14:58:03;17.52;;;8.30;;
75220;SDS011;63802;53.232;6.570;2023-03-01T15:00:30;16.13;;;8.07;;
75220;SDS011;63802;53.232;6.570;2023-03-01T15:03:00;15.00;;;7.25;;
75220;SDS011;63802;53.232;6.570;2023-03-01T15:05:34;16.70;;;7.63;;
75220;SDS011;63802;53.232;6.570;2023-03-01T15:08:01;15.82;;;7.53;;
75220;SDS011;63802;53.232;6.570;2023-03-01T15:10:30;14.88;;;7.85;;
75220;SDS011;63802;53.232;6.570;2023-03-01T15:13:13;17.92;;;8.38;;
75220;SDS011;63802;53.232;6.570;2023-03-01T15:15:47;17.23;;;7.10;;
75220;SDS011;63802;53.232;6.570;2023-03-01T15:18:18;14.65;;;7.75;;
75220;SDS011;63802;53.232;6.570;2023-03-01T15:20:45;14.48;;;7.55;;
75220;SDS011;63802;53.232;6.570;2023-03-01T15:23:17;18.75;;;8.13;;
75220;SDS011;63802;53.232;6.570;2023-03-01T15:25:52;18.23;;;8.18;;
75220;SDS011;63802;53.232;6.570;2023-03-01T15:28:25;16.63;;;8.10;;
75220;SDS011;63802;53.232;6.570;2023-03-01T15:31:01;17.35;;;8.13;;
75220;SDS011;63802;53.232;6.570;2023-03-01T15:33:45;16.33;;;7.75;;
75220;SDS011;63802;53.232;6.570;2023-03-01T15:42:04;15.68;;;7.82;;
75220;SDS011;63802;53.232;6.570;2023-03-01T15:44:31;18.55;;;8.18;;
75220;SDS011;63802;53.232;6.570;2023-03-01T15:46:59;14.55;;;7.72;;
75220;SDS011;63802;53.232;6.570;2023-03-01T15:49:38;17.67;;;7.55;;
75220;SDS011;63802;53.232;6.570;2023-03-01T15:52:08;17.30;;;7.70;;
75220;SDS011;63802;53.232;6.570;2023-03-01T15:54:38;16.02;;;7.57;;
75220;SDS011;63802;53.232;6.570;2023-03-01T15:57:09;16.48;;;6.95;;
75220;SDS011;63802;53.232;6.570;2023-03-01T15:59:42;16.77;;;7.95;;
75220;SDS011;63802;53.232;6.570;2023-03-01T16:02:12;15.98;;;7.43;;
75220;SDS011;63802;53.232;6.570;2023-03-01T16:04:38;16.88;;;8.00;;
75220;SDS011;63802;53.232;6.570;2023-03-01T16:07:04;21.00;;;8.32;;
75220;SDS011;63802;53.232;6.570;2023-03-01T16:09:33;15.68;;;7.68;;
75220;SDS011;63802;53.232;6.570;2023-03-01T16:11:59;16.92;;;8.05;;
75220;SDS011;63802;53.232;6.570;2023-03-01T16:14:24;15.88;;;7.63;;
75220;SDS011;63802;53.232;6.570;2023-03-01T16:16:50;14.45;;;7.53;;
75220;SDS011;63802;53.232;6.570;2023-03-01T16:19:15;19.38;;;7.75;;
75220;SDS011;63802;53.232;6.570;2023-03-01T16:21:42;15.45;;;7.95;;
75220;SDS011;63802;53.232;6.570;2023-03-01T16:24:08;18.90;;;8.48;;
75220;SDS011;63802;53.232;6.570;2023-03-01T16:26:35;19.40;;;8.63;;
75220;SDS011;63802;53.232;6.570;2023-03-01T16:29:04;16.30;;;8.68;;
75220;SDS011;63802;53.232;6.570;2023-03-01T16:31:30;21.63;;;8.93;;
75220;SDS011;63802;53.232;6.570;2023-03-01T16:33:57;19.38;;;8.95;;
75220;SDS011;63802;53.232;6.570;2023-03-01T16:36:25;19.55;;;9.00;;
75220;SDS011;63802;53.232;6.570;2023-03-01T16:38:53;18.45;;;8.90;;
75220;SDS011;63802;53.232;6.570;2023-03-01T16:41:20;20.33;;;8.88;;
75220;SDS011;63802;53.232;6.570;2023-03-01T16:43:46;18.25;;;8.15;;
75220;SDS011;63802;53.232;6.570;2023-03-01T16:46:13;20.13;;;8.30;;
75220;SDS011;63802;53.232;6.570;2023-03-01T16:48:44;22.20;;;8.40;;
75220;SDS011;63802;53.232;6.570;2023-03-01T16:51:11;22.92;;;8.98;;
75220;SDS011;63802;53.232;6.570;2023-03-01T16:53:37;18.55;;;9.18;;
75220;SDS011;63802;53.232;6.570;2023-03-01T16:56:04;15.95;;;8.00;;
75220;SDS011;63802;53.232;6.570;2023-03-01T16:58:32;18.88;;;8.43;;
75220;SDS011;63802;53.232;6.570;2023-03-01T17:01:20;18.38;;;8.93;;
75220;SDS011;63802;53.232;6.570;2023-03-01T17:06:17;16.98;;;7.90;;